sensor_id;sensor_type;location;lat;lon;timestamp;pressure;altitude;pressure_sealevel;temperature
68440;BMP180;55421;51.600;5.718;2022-07-23T00:00:06;6963.80;;;18.60
68440;BMP180;55421;51.600;5.718;2022-07-23T00:02:53;5114.20;;;18.60
68440;BMP180;55421;51.600;5.718;2022-07-23T00:05:20;8103.20;;;18.60
68440;BMP180;55421;51.600;5.718;2022-07-23T00:07:46;6244.00;;;18.50
68440;BMP180;55421;51.600;5.718;2022-07-23T00:10:13;1292.40;;;18.40
68440;BMP180;55421;51.600;5.718;2022-07-23T00:12:40;2794.20;;;18.40
68440;BMP180;55421;51.600;5.718;2022-07-23T00:15:07;6571.80;;;18.40
68440;BMP180;55421;51.600;5.718;2022-07-23T00:17:34;199467.59;;;18.40
68440;BMP180;55421;51.600;5.718;2022-07-23T00:20:01;198954.80;;;18.30
68440;BMP180;55421;51.600;5.718;2022-07-23T00:22:28;248711.00;;;18.30
68440;BMP180;55421;51.600;5.718;2022-07-23T00:24:56;198214.59;;;18.30
68440;BMP180;55421;51.600;5.718;2022-07-23T00:27:23;198793.80;;;18.20
68440;BMP180;55421;51.600;5.718;2022-07-23T00:29:49;199786.41;;;18.20
68440;BMP180;55421;51.600;5.718;2022-07-23T00:32:16;2275.80;;;18.20
68440;BMP180;55421;51.600;5.718;2022-07-23T00:34:42;247890.80;;;18.16
68440;BMP180;55421;51.600;5.718;2022-07-23T00:37:09;246339.59;;;18.00
68440;BMP180;55421;51.600;5.718;2022-07-23T00:39:35;243312.00;;;17.84
68440;BMP180;55421;51.600;5.718;2022-07-23T00:42:02;238535.80;;;17.70
68440;BMP180;55421;51.600;5.718;2022-07-23T00:44:28;235906.00;;;17.60
68440;BMP180;55421;51.600;5.718;2022-07-23T00:46:57;232002.41;;;17.60
68440;BMP180;55421;51.600;5.718;2022-07-23T00:49:27;231020.41;;;17.60
68440;BMP180;55421;51.600;5.718;2022-07-23T00:51:55;232246.59;;;17.60
68440;BMP180;55421;51.600;5.718;2022-07-23T00:54:25;230853.80;;;17.60
68440;BMP180;55421;51.600;5.718;2022-07-23T00:56:52;231095.80;;;17.60
68440;BMP180;55421;51.600;5.718;2022-07-23T00:59:19;230440.80;;;17.60
68440;BMP180;55421;51.600;5.718;2022-07-23T01:01:46;229677.00;;;17.60
68440;BMP180;55421;51.600;5.718;2022-07-23T01:04:16;228201.59;;;17.60
68440;BMP180;55421;51.600;5.718;2022-07-23T01:06:43;228151.59;;;17.70
68440;BMP180;55421;51.600;5.718;2022-07-23T01:09:11;229853.59;;;17.70
68440;BMP180;55421;51.600;5.718;2022-07-23T01:11:38;228203.00;;;17.66
68440;BMP180;55421;51.600;5.718;2022-07-23T01:14:23;229962.80;;;17.66
68440;BMP180;55421;51.600;5.718;2022-07-23T01:16:49;228971.41;;;17.60
68440;BMP180;55421;51.600;5.718;2022-07-23T01:19:17;230536.20;;;17.50
68440;BMP180;55421;51.600;5.718;2022-07-23T01:21:50;228322.80;;;17.48
68440;BMP180;55421;51.600;5.718;2022-07-23T01:24:18;227929.80;;;17.48
68440;BMP180;55421;51.600;5.718;2022-07-23T01:26:49;227506.80;;;17.50
68440;BMP180;55421;51.600;5.718;2022-07-23T01:29:17;228645.00;;;17.50
68440;BMP180;55421;51.600;5.718;2022-07-23T01:31:43;229152.80;;;17.54
68440;BMP180;55421;51.600;5.718;2022-07-23T01:34:10;232853.00;;;17.60
68440;BMP180;55421;51.600;5.718;2022-07-23T01:36:37;232282.80;;;17.50
68440;BMP180;55421;51.600;5.718;2022-07-23T01:39:05;230238.20;;;17.40
68440;BMP180;55421;51.600;5.718;2022-07-23T01:41:33;228100.41;;;17.38
68440;BMP180;55421;51.600;5.718;2022-07-23T01:44:00;227976.41;;;17.40
68440;BMP180;55421;51.600;5.718;2022-07-23T01:46:27;228487.20;;;17.40
68440;BMP180;55421;51.600;5.718;2022-07-23T01:48:53;227625.80;;;17.30
68440;BMP180;55421;51.600;5.718;2022-07-23T01:51:20;227604.41;;;17.30
68440;BMP180;55421;51.600;5.718;2022-07-23T01:53:46;227366.59;;;17.20
68440;BMP180;55421;51.600;5.718;2022-07-23T01:56:13;226290.80;;;17.20
68440;BMP180;55421;51.600;5.718;2022-07-23T01:58:41;225788.20;;;17.20
68440;BMP180;55421;51.600;5.718;2022-07-23T02:01:07;226716.59;;;17.20
68440;BMP180;55421;51.600;5.718;2022-07-23T02:03:34;225248.59;;;17.10
68440;BMP180;55421;51.600;5.718;2022-07-23T02:06:00;225653.41;;;17.10
68440;BMP180;55421;51.600;5.718;2022-07-23T02:08:26;225594.80;;;17.00
68440;BMP180;55421;51.600;5.718;2022-07-23T02:10:53;225097.80;;;17.00
68440;BMP180;55421;51.600;5.718;2022-07-23T02:13:19;224531.41;;;17.00
68440;BMP180;55421;51.600;5.718;2022-07-23T02:15:47;224497.59;;;17.00
68440;BMP180;55421;51.600;5.718;2022-07-23T02:18:14;224129.59;;;17.10
68440;BMP180;55421;51.600;5.718;2022-07-23T02:20:41;225259.80;;;17.00
68440;BMP180;55421;51.600;5.718;2022-07-23T02:23:08;224822.00;;;16.84
68440;BMP180;55421;51.600;5.718;2022-07-23T02:25:34;223919.41;;;16.80
68440;BMP180;55421;51.600;5.718;2022-07-23T02:28:02;223890.80;;;16.70
68440;BMP180;55421;51.600;5.718;2022-07-23T02:30:29;223841.59;;;16.66
68440;BMP180;55421;51.600;5.718;2022-07-23T02:32:55;223759.59;;;16.60
68440;BMP180;55421;51.600;5.718;2022-07-23T02:35:22;223741.00;;;16.60
68440;BMP180;55421;51.600;5.718;2022-07-23T02:37:48;223750.59;;;16.60
68440;BMP180;55421;51.600;5.718;2022-07-23T02:40:16;223803.59;;;16.70
68440;BMP180;55421;51.600;5.718;2022-07-23T02:42:42;223860.80;;;16.80
68440;BMP180;55421;51.600;5.718;2022-07-23T02:45:09;223877.20;;;16.80
68440;BMP180;55421;51.600;5.718;2022-07-23T02:47:37;223888.80;;;16.80
68440;BMP180;55421;51.600;5.718;2022-07-23T02:50:05;223891.41;;;16.80
68440;BMP180;55421;51.600;5.718;2022-07-23T02:52:31;223850.80;;;16.76
68440;BMP180;55421;51.600;5.718;2022-07-23T02:54:57;223824.00;;;16.70
68440;BMP180;55421;51.600;5.718;2022-07-23T02:57:24;223849.20;;;16.72
68440;BMP180;55421;51.600;5.718;2022-07-23T02:59:50;223873.20;;;16.80
68440;BMP180;55421;51.600;5.718;2022-07-23T03:02:17;223876.00;;;16.80
68440;BMP180;55421;51.600;5.718;2022-07-23T03:04:43;223822.80;;;16.70
68440;BMP180;55421;51.600;5.718;2022-07-23T03:07:10;223734.00;;;16.52
68440;BMP180;55421;51.600;5.718;2022-07-23T03:09:36;223632.59;;;16.40
68440;BMP180;55421;51.600;5.718;2022-07-23T03:12:03;223614.80;;;16.34
68440;BMP180;55421;51.600;5.718;2022-07-23T03:14:29;223618.00;;;16.34
68440;BMP180;55421;51.600;5.718;2022-07-23T03:16:55;223606.80;;;16.30
68440;BMP180;55421;51.600;5.718;2022-07-23T03:19:22;223578.59;;;16.30
68440;BMP180;55421;51.600;5.718;2022-07-23T03:21:48;223565.41;;;16.20
68440;BMP180;55421;51.600;5.718;2022-07-23T03:24:14;223531.41;;;16.20
68440;BMP180;55421;51.600;5.718;2022-07-23T03:26:41;223496.20;;;16.10
68440;BMP180;55421;51.600;5.718;2022-07-23T03:29:07;223487.80;;;16.10
68440;BMP180;55421;51.600;5.718;2022-07-23T03:31:34;223486.20;;;16.10
68440;BMP180;55421;51.600;5.718;2022-07-23T03:34:01;223496.20;;;16.10
68440;BMP180;55421;51.600;5.718;2022-07-23T03:36:28;223493.00;;;16.10
68440;BMP180;55421;51.600;5.718;2022-07-23T03:38:54;223485.80;;;16.10
68440;BMP180;55421;51.600;5.718;2022-07-23T03:41:20;223493.00;;;16.10
68440;BMP180;55421;51.600;5.718;2022-07-23T03:43:47;223492.20;;;16.10
68440;BMP180;55421;51.600;5.718;2022-07-23T03:46:14;223483.00;;;16.10
68440;BMP180;55421;51.600;5.718;2022-07-23T03:48:40;223466.00;;;16.10
68440;BMP180;55421;51.600;5.718;2022-07-23T03:51:07;223456.00;;;16.06
68440;BMP180;55421;51.600;5.718;2022-07-23T03:53:33;223501.00;;;16.10
68440;BMP180;55421;51.600;5.718;2022-07-23T03:56:00;223512.20;;;16.12
68440;BMP180;55421;51.600;5.718;2022-07-23T03:58:26;223510.59;;;16.14
68440;BMP180;55421;51.600;5.718;2022-07-23T04:00:53;223504.20;;;16.10
68440;BMP180;55421;51.600;5.718;2022-07-23T04:03:19;223510.59;;;16.14
68440;BMP180;55421;51.600;5.718;2022-07-23T04:05:47;223479.00;;;16.10
68440;BMP180;55421;51.600;5.718;2022-07-23T04:08:14;223411.20;;;15.98
68440;BMP180;55421;51.600;5.718;2022-07-23T04:10:40;223362.59;;;15.90
68440;BMP180;55421;51.600;5.718;2022-07-23T04:13:07;223357.80;;;15.90
68440;BMP180;55421;51.600;5.718;2022-07-23T04:15:33;223407.59;;;15.98
68440;BMP180;55421;51.600;5.718;2022-07-23T04:17:59;223467.41;;;16.10
68440;BMP180;55421;51.600;5.718;2022-07-23T04:20:26;223523.00;;;16.20
68440;BMP180;55421;51.600;5.718;2022-07-23T04:22:52;223584.20;;;16.30
68440;BMP180;55421;51.600;5.718;2022-07-23T04:25:19;223674.59;;;16.42
68440;BMP180;55421;51.600;5.718;2022-07-23T04:27:45;223765.41;;;16.60
68440;BMP180;55421;51.600;5.718;2022-07-23T04:30:11;224453.80;;;16.70
68440;BMP180;55421;51.600;5.718;2022-07-23T04:32:38;224376.41;;;16.70
68440;BMP180;55421;51.600;5.718;2022-07-23T04:35:04;225435.80;;;16.80
68440;BMP180;55421;51.600;5.718;2022-07-23T04:37:31;226722.59;;;17.00
68440;BMP180;55421;51.600;5.718;2022-07-23T04:39:57;230723.00;;;17.14
68440;BMP180;55421;51.600;5.718;2022-07-23T04:42:24;231863.00;;;17.30
68440;BMP180;55421;51.600;5.718;2022-07-23T04:44:50;233186.41;;;17.40
68440;BMP180;55421;51.600;5.718;2022-07-23T04:47:17;236841.80;;;17.48
68440;BMP180;55421;51.600;5.718;2022-07-23T04:49:43;238124.41;;;17.60
68440;BMP180;55421;51.600;5.718;2022-07-23T04:52:10;238536.41;;;17.70
68440;BMP180;55421;51.600;5.718;2022-07-23T04:54:36;242777.00;;;17.80
68440;BMP180;55421;51.600;5.718;2022-07-23T04:57:03;243208.20;;;17.80
68440;BMP180;55421;51.600;5.718;2022-07-23T04:59:29;244206.80;;;17.70
68440;BMP180;55421;51.600;5.718;2022-07-23T05:01:55;243659.20;;;17.70
68440;BMP180;55421;51.600;5.718;2022-07-23T05:04:22;242308.41;;;17.60
68440;BMP180;55421;51.600;5.718;2022-07-23T05:06:48;240963.41;;;17.60
68440;BMP180;55421;51.600;5.718;2022-07-23T05:09:15;240190.59;;;17.60
68440;BMP180;55421;51.600;5.718;2022-07-23T05:11:41;238903.20;;;17.60
68440;BMP180;55421;51.600;5.718;2022-07-23T05:14:07;238437.80;;;17.60
68440;BMP180;55421;51.600;5.718;2022-07-23T05:16:34;240334.80;;;17.68
68440;BMP180;55421;51.600;5.718;2022-07-23T05:19:00;237784.20;;;17.60
68440;BMP180;55421;51.600;5.718;2022-07-23T05:21:27;237597.80;;;17.60
68440;BMP180;55421;51.600;5.718;2022-07-23T05:23:53;236054.00;;;17.64
68440;BMP180;55421;51.600;5.718;2022-07-23T05:26:20;236081.20;;;17.70
68440;BMP180;55421;51.600;5.718;2022-07-23T05:28:46;237866.59;;;17.80
68440;BMP180;55421;51.600;5.718;2022-07-23T05:31:12;238091.80;;;17.90
68440;BMP180;55421;51.600;5.718;2022-07-23T05:33:39;237287.00;;;18.00
68440;BMP180;55421;51.600;5.718;2022-07-23T05:36:06;239770.59;;;18.10
68440;BMP180;55421;51.600;5.718;2022-07-23T05:38:33;239598.20;;;18.16
68440;BMP180;55421;51.600;5.718;2022-07-23T05:41:00;237683.59;;;18.20
68440;BMP180;55421;51.600;5.718;2022-07-23T05:43:27;239176.00;;;18.26
68440;BMP180;55421;51.600;5.718;2022-07-23T05:45:54;238961.80;;;18.30
68440;BMP180;55421;51.600;5.718;2022-07-23T05:48:20;239906.80;;;18.30
68440;BMP180;55421;51.600;5.718;2022-07-23T05:50:47;240522.00;;;18.40
68440;BMP180;55421;51.600;5.718;2022-07-23T05:53:14;244733.80;;;18.50
68440;BMP180;55421;51.600;5.718;2022-07-23T05:55:40;247089.20;;;18.50
68440;BMP180;55421;51.600;5.718;2022-07-23T05:58:07;247721.59;;;18.60
68440;BMP180;55421;51.600;5.718;2022-07-23T06:00:35;248338.00;;;18.70
68440;BMP180;55421;51.600;5.718;2022-07-23T06:03:01;247999.80;;;18.70
68440;BMP180;55421;51.600;5.718;2022-07-23T06:05:28;249146.20;;;18.80
68440;BMP180;55421;51.600;5.718;2022-07-23T06:07:54;50831.60;;;18.80
68440;BMP180;55421;51.600;5.718;2022-07-23T06:10:21;1006.60;;;18.90
68440;BMP180;55421;51.600;5.718;2022-07-23T06:12:47;2889.60;;;19.00
68440;BMP180;55421;51.600;5.718;2022-07-23T06:15:13;4998.80;;;19.08
68440;BMP180;55421;51.600;5.718;2022-07-23T06:17:40;5047.40;;;19.10
68440;BMP180;55421;51.600;5.718;2022-07-23T06:20:08;6825.40;;;19.20
68440;BMP180;55421;51.600;5.718;2022-07-23T06:22:36;8296.00;;;19.20
68440;BMP180;55421;51.600;5.718;2022-07-23T06:25:03;7105.80;;;19.14
68440;BMP180;55421;51.600;5.718;2022-07-23T06:27:30;6058.80;;;19.24
68440;BMP180;55421;51.600;5.718;2022-07-23T06:29:56;8591.80;;;19.36
68440;BMP180;55421;51.600;5.718;2022-07-23T06:32:23;10354.60;;;19.40
68440;BMP180;55421;51.600;5.718;2022-07-23T06:34:49;11088.60;;;19.40
68440;BMP180;55421;51.600;5.718;2022-07-23T06:37:16;13693.40;;;19.50
68440;BMP180;55421;51.600;5.718;2022-07-23T06:39:42;11522.60;;;19.50
68440;BMP180;55421;51.600;5.718;2022-07-23T06:42:09;12590.20;;;19.50
68440;BMP180;55421;51.600;5.718;2022-07-23T06:44:36;14037.80;;;19.50
68440;BMP180;55421;51.600;5.718;2022-07-23T06:47:03;14285.40;;;19.58
68440;BMP180;55421;51.600;5.718;2022-07-23T06:49:29;15074.00;;;19.60
68440;BMP180;55421;51.600;5.718;2022-07-23T06:51:56;14765.60;;;19.50
68440;BMP180;55421;51.600;5.718;2022-07-23T06:54:22;18329.00;;;19.50
68440;BMP180;55421;51.600;5.718;2022-07-23T06:56:48;14698.80;;;19.60
68440;BMP180;55421;51.600;5.718;2022-07-23T06:59:15;15988.80;;;19.70
68440;BMP180;55421;51.600;5.718;2022-07-23T07:01:41;16864.40;;;19.70
68440;BMP180;55421;51.600;5.718;2022-07-23T07:04:07;15329.40;;;19.80
68440;BMP180;55421;51.600;5.718;2022-07-23T07:06:34;17919.60;;;19.80
68440;BMP180;55421;51.600;5.718;2022-07-23T07:09:01;17094.20;;;19.90
68440;BMP180;55421;51.600;5.718;2022-07-23T07:11:27;17976.40;;;20.00
68440;BMP180;55421;51.600;5.718;2022-07-23T07:13:54;18234.80;;;20.00
68440;BMP180;55421;51.600;5.718;2022-07-23T07:16:20;18673.60;;;20.10
68440;BMP180;55421;51.600;5.718;2022-07-23T07:18:46;17488.00;;;20.20
68440;BMP180;55421;51.600;5.718;2022-07-23T07:21:13;21527.40;;;20.14
68440;BMP180;55421;51.600;5.718;2022-07-23T07:23:39;19922.20;;;20.24
68440;BMP180;55421;51.600;5.718;2022-07-23T07:26:06;19798.20;;;20.20
68440;BMP180;55421;51.600;5.718;2022-07-23T07:28:32;20305.00;;;20.34
68440;BMP180;55421;51.600;5.718;2022-07-23T07:30:59;21990.80;;;20.50
68440;BMP180;55421;51.600;5.718;2022-07-23T07:33:25;22957.40;;;20.68
68440;BMP180;55421;51.600;5.718;2022-07-23T07:35:51;22605.60;;;20.70
68440;BMP180;55421;51.600;5.718;2022-07-23T07:38:18;23592.60;;;20.80
68440;BMP180;55421;51.600;5.718;2022-07-23T07:40:45;21766.20;;;20.90
68440;BMP180;55421;51.600;5.718;2022-07-23T07:43:11;22272.00;;;20.92
68440;BMP180;55421;51.600;5.718;2022-07-23T07:45:37;23585.80;;;21.00
68440;BMP180;55421;51.600;5.718;2022-07-23T07:48:05;22142.00;;;21.10
68440;BMP180;55421;51.600;5.718;2022-07-23T07:50:31;21432.20;;;21.10
68440;BMP180;55421;51.600;5.718;2022-07-23T07:52:58;22305.40;;;21.10
68440;BMP180;55421;51.600;5.718;2022-07-23T07:55:24;20124.80;;;21.20
68440;BMP180;55421;51.600;5.718;2022-07-23T07:57:51;21845.80;;;21.20
68440;BMP180;55421;51.600;5.718;2022-07-23T08:00:17;23567.80;;;21.22
68440;BMP180;55421;51.600;5.718;2022-07-23T08:02:50;22740.20;;;21.20
68440;BMP180;55421;51.600;5.718;2022-07-23T08:05:27;23320.80;;;21.20
68440;BMP180;55421;51.600;5.718;2022-07-23T08:07:55;22972.40;;;21.30
68440;BMP180;55421;51.600;5.718;2022-07-23T08:10:23;21767.60;;;21.30
68440;BMP180;55421;51.600;5.718;2022-07-23T08:12:53;23239.00;;;21.30
68440;BMP180;55421;51.600;5.718;2022-07-23T08:15:21;23359.40;;;21.50
68440;BMP180;55421;51.600;5.718;2022-07-23T08:17:48;23319.80;;;21.70
68440;BMP180;55421;51.600;5.718;2022-07-23T08:20:19;25002.80;;;21.80
68440;BMP180;55421;51.600;5.718;2022-07-23T08:22:52;23908.80;;;21.80
68440;BMP180;55421;51.600;5.718;2022-07-23T08:25:27;23138.60;;;21.80
68440;BMP180;55421;51.600;5.718;2022-07-23T08:27:55;24910.60;;;21.90
68440;BMP180;55421;51.600;5.718;2022-07-23T08:30:22;23521.60;;;22.00
68440;BMP180;55421;51.600;5.718;2022-07-23T08:32:59;24953.20;;;22.00
68440;BMP180;55421;51.600;5.718;2022-07-23T08:35:32;25915.00;;;22.08
68440;BMP180;55421;51.600;5.718;2022-07-23T08:38:01;27557.80;;;22.00
68440;BMP180;55421;51.600;5.718;2022-07-23T08:40:31;26070.80;;;22.10
68440;BMP180;55421;51.600;5.718;2022-07-23T08:42:59;25575.60;;;22.20
68440;BMP180;55421;51.600;5.718;2022-07-23T08:45:27;27797.80;;;22.30
68440;BMP180;55421;51.600;5.718;2022-07-23T08:47:57;27368.00;;;22.40
68440;BMP180;55421;51.600;5.718;2022-07-23T08:50:27;27748.80;;;22.60
68440;BMP180;55421;51.600;5.718;2022-07-23T08:52:54;31902.40;;;22.60
68440;BMP180;55421;51.600;5.718;2022-07-23T08:55:22;30011.40;;;22.60
68440;BMP180;55421;51.600;5.718;2022-07-23T08:57:52;28435.60;;;22.60
68440;BMP180;55421;51.600;5.718;2022-07-23T09:00:21;29579.80;;;22.70
68440;BMP180;55421;51.600;5.718;2022-07-23T09:02:49;27378.00;;;22.80
68440;BMP180;55421;51.600;5.718;2022-07-23T09:05:18;28749.00;;;22.80
68440;BMP180;55421;51.600;5.718;2022-07-23T09:08:09;28582.00;;;22.70
68440;BMP180;55421;51.600;5.718;2022-07-23T09:10:59;28542.40;;;22.80
68440;BMP180;55421;51.600;5.718;2022-07-23T09:18:44;27776.60;;;23.20
68440;BMP180;55421;51.600;5.718;2022-07-23T09:21:34;30010.00;;;23.30
68440;BMP180;55421;51.600;5.718;2022-07-23T09:24:10;29943.20;;;23.30
68440;BMP180;55421;51.600;5.718;2022-07-23T09:26:42;29796.60;;;23.30
68440;BMP180;55421;51.600;5.718;2022-07-23T09:29:18;30235.80;;;23.40
68440;BMP180;55421;51.600;5.718;2022-07-23T09:31:47;28585.00;;;23.50
68440;BMP180;55421;51.600;5.718;2022-07-23T09:37:08;28213.20;;;23.50
68440;BMP180;55421;51.600;5.718;2022-07-23T09:39:35;29216.20;;;23.40
68440;BMP180;55421;51.600;5.718;2022-07-23T09:42:22;31022.40;;;23.50
68440;BMP180;55421;51.600;5.718;2022-07-23T09:44:57;29404.40;;;23.54
68440;BMP180;55421;51.600;5.718;2022-07-23T09:47:28;30462.80;;;23.54
68440;BMP180;55421;51.600;5.718;2022-07-23T09:50:08;30021.00;;;23.70
68440;BMP180;55421;51.600;5.718;2022-07-23T09:52:46;30157.40;;;23.80
68440;BMP180;55421;51.600;5.718;2022-07-23T09:55:18;27305.20;;;23.90
68440;BMP180;55421;51.600;5.718;2022-07-23T09:57:46;30619.00;;;23.90
68440;BMP180;55421;51.600;5.718;2022-07-23T10:00:16;30890.20;;;24.00
68440;BMP180;55421;51.600;5.718;2022-07-23T10:02:45;29239.40;;;24.14
68440;BMP180;55421;51.600;5.718;2022-07-23T10:05:12;29594.80;;;24.30
68440;BMP180;55421;51.600;5.718;2022-07-23T10:07:40;28797.60;;;24.40
68440;BMP180;55421;51.600;5.718;2022-07-23T10:10:09;31162.60;;;24.34
68440;BMP180;55421;51.600;5.718;2022-07-23T10:12:37;28513.40;;;24.40
68440;BMP180;55421;51.600;5.718;2022-07-23T10:15:19;28770.40;;;24.52
68440;BMP180;55421;51.600;5.718;2022-07-23T10:17:45;30304.20;;;24.60
68440;BMP180;55421;51.600;5.718;2022-07-23T10:20:12;28701.40;;;24.74
68440;BMP180;55421;51.600;5.718;2022-07-23T10:22:46;30175.80;;;24.86
68440;BMP180;55421;51.600;5.718;2022-07-23T10:30:45;27840.20;;;24.90
68440;BMP180;55421;51.600;5.718;2022-07-23T10:34:02;28219.00;;;24.74
68440;BMP180;55421;51.600;5.718;2022-07-23T10:36:50;27789.00;;;24.70
68440;BMP180;55421;51.600;5.718;2022-07-23T10:39:34;30574.80;;;24.88
68440;BMP180;55421;51.600;5.718;2022-07-23T10:42:14;29761.80;;;24.94
68440;BMP180;55421;51.600;5.718;2022-07-23T10:44:48;28571.40;;;25.10
68440;BMP180;55421;51.600;5.718;2022-07-23T10:47:27;29422.40;;;25.30
68440;BMP180;55421;51.600;5.718;2022-07-23T10:50:25;31865.60;;;25.20
68440;BMP180;55421;51.600;5.718;2022-07-23T10:58:04;32332.40;;;25.22
68440;BMP180;55421;51.600;5.718;2022-07-23T11:00:33;32710.60;;;25.30
68440;BMP180;55421;51.600;5.718;2022-07-23T11:03:34;32546.00;;;25.40
68440;BMP180;55421;51.600;5.718;2022-07-23T11:06:06;33147.00;;;25.50
68440;BMP180;55421;51.600;5.718;2022-07-23T11:08:33;31696.20;;;25.50
68440;BMP180;55421;51.600;5.718;2022-07-23T11:13:39;31045.00;;;25.60
68440;BMP180;55421;51.600;5.718;2022-07-23T11:16:14;30658.40;;;25.58
68440;BMP180;55421;51.600;5.718;2022-07-23T11:34:52;31511.60;;;25.60
68440;BMP180;55421;51.600;5.718;2022-07-23T11:37:40;32062.80;;;25.70
68440;BMP180;55421;51.600;5.718;2022-07-23T11:40:13;32238.80;;;25.60
68440;BMP180;55421;51.600;5.718;2022-07-23T11:45:17;32667.20;;;25.60
68440;BMP180;55421;51.600;5.718;2022-07-23T11:47:43;31716.60;;;25.70
68440;BMP180;55421;51.600;5.718;2022-07-23T11:50:10;33554.20;;;25.64
68440;BMP180;55421;51.600;5.718;2022-07-23T11:52:36;31750.60;;;25.60
68440;BMP180;55421;51.600;5.718;2022-07-23T11:55:07;31997.20;;;25.70
68440;BMP180;55421;51.600;5.718;2022-07-23T11:57:40;32307.80;;;25.80
68440;BMP180;55421;51.600;5.718;2022-07-23T12:00:15;32047.80;;;25.90
68440;BMP180;55421;51.600;5.718;2022-07-23T12:02:48;33298.60;;;25.90
68440;BMP180;55421;51.600;5.718;2022-07-23T12:05:18;33168.40;;;25.94
68440;BMP180;55421;51.600;5.718;2022-07-23T12:07:48;32821.40;;;26.00
68440;BMP180;55421;51.600;5.718;2022-07-23T12:10:25;34067.20;;;26.10
68440;BMP180;55421;51.600;5.718;2022-07-23T12:13:00;34190.40;;;26.26
68440;BMP180;55421;51.600;5.718;2022-07-23T12:15:32;31986.00;;;26.40
68440;BMP180;55421;51.600;5.718;2022-07-23T12:18:01;33134.40;;;26.40
68440;BMP180;55421;51.600;5.718;2022-07-23T12:20:37;34659.00;;;26.40
68440;BMP180;55421;51.600;5.718;2022-07-23T12:23:07;34838.00;;;26.40
68440;BMP180;55421;51.600;5.718;2022-07-23T12:25:37;33597.40;;;26.38
68440;BMP180;55421;51.600;5.718;2022-07-23T12:28:14;33379.80;;;26.38
68440;BMP180;55421;51.600;5.718;2022-07-23T12:30:48;34951.80;;;26.30
68440;BMP180;55421;51.600;5.718;2022-07-23T12:33:23;33889.80;;;26.46
68440;BMP180;55421;51.600;5.718;2022-07-23T12:35:53;34674.60;;;26.50
68440;BMP180;55421;51.600;5.718;2022-07-23T12:38:23;37589.00;;;26.60
68440;BMP180;55421;51.600;5.718;2022-07-23T12:40:58;33313.00;;;26.70
68440;BMP180;55421;51.600;5.718;2022-07-23T12:43:34;36808.00;;;26.72
68440;BMP180;55421;51.600;5.718;2022-07-23T12:46:21;34551.00;;;26.80
68440;BMP180;55421;51.600;5.718;2022-07-23T12:51:27;35065.20;;;26.80
68440;BMP180;55421;51.600;5.718;2022-07-23T12:54:09;33516.00;;;26.70
68440;BMP180;55421;51.600;5.718;2022-07-23T12:56:39;34594.00;;;26.68
68440;BMP180;55421;51.600;5.718;2022-07-23T12:59:11;35076.00;;;26.50
68440;BMP180;55421;51.600;5.718;2022-07-23T13:01:53;35810.80;;;26.50
68440;BMP180;55421;51.600;5.718;2022-07-23T13:04:24;35318.80;;;26.50
68440;BMP180;55421;51.600;5.718;2022-07-23T13:06:54;36954.00;;;26.50
68440;BMP180;55421;51.600;5.718;2022-07-23T13:09:30;34883.20;;;26.50
68440;BMP180;55421;51.600;5.718;2022-07-23T13:11:57;36045.60;;;26.50
68440;BMP180;55421;51.600;5.718;2022-07-23T13:14:26;33774.40;;;26.46
68440;BMP180;55421;51.600;5.718;2022-07-23T13:16:55;35581.80;;;26.46
68440;BMP180;55421;51.600;5.718;2022-07-23T13:19:21;36643.40;;;26.40
68440;BMP180;55421;51.600;5.718;2022-07-23T13:21:48;35447.60;;;26.40
68440;BMP180;55421;51.600;5.718;2022-07-23T13:24:16;35060.60;;;26.30
68440;BMP180;55421;51.600;5.718;2022-07-23T13:26:42;36365.40;;;26.32
68440;BMP180;55421;51.600;5.718;2022-07-23T13:29:09;37308.40;;;26.38
68440;BMP180;55421;51.600;5.718;2022-07-23T13:31:37;37477.60;;;26.30
68440;BMP180;55421;51.600;5.718;2022-07-23T13:34:05;38715.80;;;26.30
68440;BMP180;55421;51.600;5.718;2022-07-23T13:36:31;36859.60;;;26.30
68440;BMP180;55421;51.600;5.718;2022-07-23T13:38:58;36723.00;;;26.30
68440;BMP180;55421;51.600;5.718;2022-07-23T13:41:26;35521.00;;;26.30
68440;BMP180;55421;51.600;5.718;2022-07-23T13:43:53;34634.40;;;26.30
68440;BMP180;55421;51.600;5.718;2022-07-23T13:46:19;36076.40;;;26.30
68440;BMP180;55421;51.600;5.718;2022-07-23T13:48:45;35717.80;;;26.30
68440;BMP180;55421;51.600;5.718;2022-07-23T13:51:12;36714.20;;;26.30
68440;BMP180;55421;51.600;5.718;2022-07-23T13:53:39;34761.40;;;26.30
68440;BMP180;55421;51.600;5.718;2022-07-23T13:56:05;36486.60;;;26.30
68440;BMP180;55421;51.600;5.718;2022-07-23T13:58:31;38594.20;;;26.30
68440;BMP180;55421;51.600;5.718;2022-07-23T14:00:58;37332.00;;;26.30
68440;BMP180;55421;51.600;5.718;2022-07-23T14:03:24;36492.00;;;26.40
68440;BMP180;55421;51.600;5.718;2022-07-23T14:05:52;35218.00;;;26.30
68440;BMP180;55421;51.600;5.718;2022-07-23T14:08:19;35321.20;;;26.20
68440;BMP180;55421;51.600;5.718;2022-07-23T14:10:46;33726.00;;;26.10
68440;BMP180;55421;51.600;5.718;2022-07-23T14:13:12;35984.60;;;26.10
68440;BMP180;55421;51.600;5.718;2022-07-23T14:15:39;37319.60;;;26.10
68440;BMP180;55421;51.600;5.718;2022-07-23T14:18:07;35482.20;;;26.16
68440;BMP180;55421;51.600;5.718;2022-07-23T14:20:34;35775.00;;;26.20
68440;BMP180;55421;51.600;5.718;2022-07-23T14:23:01;37573.60;;;26.20
68440;BMP180;55421;51.600;5.718;2022-07-23T14:25:28;37684.80;;;26.26
68440;BMP180;55421;51.600;5.718;2022-07-23T14:27:54;37680.00;;;26.20
68440;BMP180;55421;51.600;5.718;2022-07-23T14:30:21;39543.80;;;26.20
68440;BMP180;55421;51.600;5.718;2022-07-23T14:32:50;38455.20;;;26.20
68440;BMP180;55421;51.600;5.718;2022-07-23T14:35:16;37492.80;;;26.20
68440;BMP180;55421;51.600;5.718;2022-07-23T14:37:45;36685.80;;;26.20
68440;BMP180;55421;51.600;5.718;2022-07-23T14:40:11;35720.60;;;26.30
68440;BMP180;55421;51.600;5.718;2022-07-23T14:42:37;36878.20;;;26.30
68440;BMP180;55421;51.600;5.718;2022-07-23T14:45:04;36629.20;;;26.30
68440;BMP180;55421;51.600;5.718;2022-07-23T14:47:32;36754.40;;;26.30
68440;BMP180;55421;51.600;5.718;2022-07-23T14:49:58;38708.80;;;26.30
68440;BMP180;55421;51.600;5.718;2022-07-23T14:52:25;40198.60;;;26.30
68440;BMP180;55421;51.600;5.718;2022-07-23T14:54:51;39816.80;;;26.20